Time;durP1;ratioP1;P1;durP2;ratioP2;P2;SDS_P1;SDS_P2;PMS_P1;PMS_P2;Temp;Humidity;BMP_temperature;BMP_pressure;BME280_temperature;BME280_humidity;BME280_pressure;Samples;Min_cycle;Max_cycle;Signal;HPM_P1;HPM_P2
2023/05/01 00:00:39;;;;;;;4.27;2.40;;;21.70;43.00;;;;;;4947476;29;20944;-76
2023/05/01 00:03:07;;;;;;;2.93;2.60;;;21.70;43.00;;;;;;4947698;29;20460;-77
2023/05/01 00:05:36;;;;;;;4.50;2.50;;;21.70;43.00;;;;;;4943089;29;20535;-76
2023/05/01 00:08:04;;;;;;;2.47;2.20;;;21.70;43.00;;;;;;4936089;29;20458;-78
2023/05/01 00:10:35;;;;;;;3.27;2.10;;;21.70;43.00;;;;;;4941134;29;20463;-77
2023/05/01 00:13:03;;;;;;;7.53;2.00;;;21.60;43.00;;;;;;4943472;29;20490;-77
2023/05/01 00:15:31;;;;;;;3.10;2.10;;;21.60;43.10;;;;;;4935071;29;20458;-77
2023/05/01 00:18:00;;;;;;;2.40;2.20;;;21.60;43.10;;;;;;4937763;29;20456;-77
2023/05/01 00:20:29;;;;;;;2.27;2.10;;;21.50;43.00;;;;;;4953707;29;20503;-77
2023/05/01 00:22:57;;;;;;;3.10;2.50;;;21.60;43.10;;;;;;4945562;29;20451;-77
2023/05/01 00:25:25;;;;;;;3.17;2.03;;;21.50;43.00;;;;;;4935444;29;20455;-77
2023/05/01 00:27:53;;;;;;;2.43;2.23;;;21.50;43.20;;;;;;4938248;29;20466;-77
2023/05/01 00:30:21;;;;;;;4.67;2.20;;;21.50;43.30;;;;;;4951023;29;20454;-77
2023/05/01 00:32:50;;;;;;;4.53;2.30;;;21.40;43.30;;;;;;4954282;29;20489;-77
2023/05/01 00:35:19;;;;;;;3.53;2.10;;;21.40;43.40;;;;;;4954631;29;20513;-78
2023/05/01 00:37:47;;;;;;;2.90;2.10;;;21.40;43.40;;;;;;4945048;29;20443;-77
2023/05/01 00:40:15;;;;;;;3.10;2.00;;;21.40;43.40;;;;;;4939980;29;20451;-76
2023/05/01 00:42:44;;;;;;;3.20;2.50;;;21.40;43.40;;;;;;4940036;29;20468;-77
2023/05/01 00:45:13;;;;;;;3.17;2.87;;;21.40;43.40;;;;;;4942776;29;20443;-77
2023/05/01 00:47:41;;;;;;;3.73;2.47;;;21.30;43.30;;;;;;4950631;29;20443;-77
2023/05/01 00:50:09;;;;;;;3.47;2.50;;;21.30;43.40;;;;;;4954165;29;20449;-77
2023/05/01 00:52:38;;;;;;;5.70;2.47;;;21.30;43.40;;;;;;4933351;29;20471;-76
2023/05/01 00:55:07;;;;;;;3.53;2.10;;;21.20;43.40;;;;;;4954246;28;20450;-77
2023/05/01 00:57:36;;;;;;;7.70;2.47;;;21.20;43.40;;;;;;4938522;28;20461;-77
2023/05/01 01:00:10;;;;;;;4.73;1.97;;;21.20;43.60;;;;;;4941910;29;20452;-77
2023/05/01 01:02:38;;;;;;;3.23;2.33;;;21.20;43.50;;;;;;4937409;29;20482;-77
2023/05/01 01:05:06;;;;;;;3.87;2.40;;;21.10;43.60;;;;;;4942903;29;20455;-76
2023/05/01 01:07:39;;;;;;;2.80;2.33;;;21.10;43.60;;;;;;4934851;29;20470;-76
2023/05/01 01:10:17;;;;;;;2.83;2.13;;;21.10;43.60;;;;;;4943717;29;20462;-77
2023/05/01 01:12:54;;;;;;;2.77;2.50;;;21.10;43.60;;;;;;4953554;28;20481;-77
2023/05/01 01:15:27;;;;;;;3.10;2.80;;;21.00;43.60;;;;;;4945398;28;20462;-77
2023/05/01 01:17:58;;;;;;;3.30;2.37;;;21.10;43.60;;;;;;4948484;29;20477;-77
2023/05/01 01:20:32;;;;;;;5.50;2.30;;;21.00;43.80;;;;;;4952684;29;20507;-76
2023/05/01 01:23:43;;;;;;;4.27;2.63;;;21.00;43.80;;;;;;4948931;29;20448;-77
2023/05/01 01:26:33;;;;;;;3.07;2.47;;;20.90;43.80;;;;;;4916072;29;20456;-76
2023/05/01 01:29:40;;;;;;;3.00;2.30;;;20.90;44.00;;;;;;4943608;29;20448;-77
2023/05/01 01:32:27;;;;;;;7.90;2.50;;;20.80;43.80;;;;;;4934359;29;20493;-77
2023/05/01 01:34:58;;;;;;;6.93;2.43;;;20.80;44.00;;;;;;4942540;29;20455;-78
2023/05/01 01:37:30;;;;;;;3.83;2.37;;;20.80;44.00;;;;;;4940795;28;20460;-76
2023/05/01 01:40:01;;;;;;;4.40;2.10;;;20.80;44.00;;;;;;4933951;29;20455;-77
2023/05/01 01:42:30;;;;;;;4.70;2.40;;;20.80;44.10;;;;;;4941944;29;20477;-78
2023/05/01 01:45:01;;;;;;;2.97;2.30;;;20.70;44.00;;;;;;4934410;29;20462;-76
2023/05/01 01:47:31;;;;;;;3.50;2.20;;;20.70;44.00;;;;;;4934953;29;20957;-77
2023/05/01 01:50:03;;;;;;;3.63;2.63;;;20.70;44.10;;;;;;4939585;29;20459;-78
2023/05/01 01:52:31;;;;;;;5.03;2.73;;;20.70;44.30;;;;;;4941819;29;20505;-77
2023/05/01 01:55:00;;;;;;;2.60;2.33;;;20.70;44.20;;;;;;4939293;29;20456;-77
2023/05/01 01:57:28;;;;;;;2.40;2.20;;;20.70;44.20;;;;;;4942051;29;21064;-77
2023/05/01 01:59:56;;;;;;;3.23;2.40;;;20.60;44.20;;;;;;4934266;29;20452;-77
2023/05/01 02:02:25;;;;;;;2.03;1.93;;;20.60;44.20;;;;;;4933950;29;20468;-77
2023/05/01 02:04:55;;;;;;;3.97;2.53;;;20.50;44.40;;;;;;4942462;29;20929;-77
2023/05/01 02:07:25;;;;;;;3.53;2.60;;;20.50;44.30;;;;;;4936375;28;20478;-77
2023/05/01 02:09:53;;;;;;;4.60;2.80;;;20.50;44.20;;;;;;4944567;29;20455;-76
2023/05/01 02:12:22;;;;;;;6.20;2.77;;;20.50;44.20;;;;;;4951828;29;20518;-76
2023/05/01 02:14:50;;;;;;;4.20;2.97;;;20.50;44.30;;;;;;4952636;29;20451;-76
2023/05/01 02:17:19;;;;;;;3.30;2.50;;;20.50;44.50;;;;;;4952757;29;20462;-77
2023/05/01 02:19:47;;;;;;;3.00;2.47;;;20.50;44.30;;;;;;4934072;29;20456;-78
2023/05/01 02:22:15;;;;;;;3.43;2.80;;;20.50;44.60;;;;;;4941609;29;20470;-76
2023/05/01 02:24:45;;;;;;;7.30;2.60;;;20.40;44.40;;;;;;4933772;29;20455;-77
2023/05/01 02:27:15;;;;;;;5.93;2.90;;;20.40;44.60;;;;;;4940569;28;20447;-77
2023/05/01 02:29:43;;;;;;;6.67;2.93;;;20.40;44.60;;;;;;4955263;29;20466;-77
2023/05/01 02:32:11;;;;;;;3.53;2.50;;;20.40;44.50;;;;;;4956656;28;20467;-77
2023/05/01 02:34:40;;;;;;;4.67;3.07;;;20.30;44.40;;;;;;4948552;29;20431;-77
2023/05/01 02:37:10;;;;;;;4.60;2.60;;;20.40;44.70;;;;;;4953177;29;20451;-78
2023/05/01 02:39:38;;;;;;;4.20;2.60;;;20.30;44.60;;;;;;4956405;29;20459;-78
2023/05/01 02:42:08;;;;;;;4.63;2.93;;;20.30;44.60;;;;;;4956378;29;20482;-77
2023/05/01 02:44:39;;;;;;;2.80;2.60;;;20.30;44.60;;;;;;4955709;29;20451;-77
2023/05/01 02:47:08;;;;;;;4.10;2.50;;;20.30;44.70;;;;;;4951170;29;20450;-78
2023/05/01 02:49:36;;;;;;;5.87;2.70;;;20.30;44.60;;;;;;4938224;29;20451;-77
2023/05/01 02:52:04;;;;;;;3.73;2.73;;;20.20;44.60;;;;;;4950263;29;20470;-78
2023/05/01 02:54:32;;;;;;;3.20;2.70;;;20.20;44.50;;;;;;4954397;29;20549;-77
2023/05/01 02:57:01;;;;;;;3.03;2.70;;;20.20;44.60;;;;;;4950392;29;20451;-77
2023/05/01 02:59:30;;;;;;;2.83;2.60;;;20.20;44.70;;;;;;4955825;29;20462;-77
2023/05/01 03:01:58;;;;;;;5.30;3.20;;;20.20;44.60;;;;;;4954337;29;20482;-77
2023/05/01 03:04:26;;;;;;;3.07;2.80;;;20.10;44.70;;;;;;4948962;29;20447;-78
2023/05/01 03:06:55;;;;;;;2.57;2.37;;;20.10;44.70;;;;;;4944700;29;20447;-78
2023/05/01 03:09:23;;;;;;;2.77;2.57;;;20.10;44.90;;;;;;4944083;29;20454;-77
2023/05/01 03:11:51;;;;;;;2.70;2.50;;;20.00;44.70;;;;;;4943783;29;20471;-77
2023/05/01 03:14:20;;;;;;;6.20;2.67;;;20.00;44.90;;;;;;4936778;29;20476;-76
2023/05/01 03:16:49;;;;;;;3.37;3.00;;;20.00;44.70;;;;;;4936901;29;20459;-77
2023/05/01 03:19:18;;;;;;;6.10;2.90;;;20.00;44.80;;;;;;4945338;28;20467;-78
2023/05/01 03:21:45;;;;;;;2.87;2.60;;;20.00;44.90;;;;;;4945458;29;20968;-76
2023/05/01 03:24:13;;;;;;;2.93;2.67;;;20.00;45.40;;;;;;4953340;28;20462;-78
2023/05/01 03:26:41;;;;;;;4.77;2.63;;;20.00;44.80;;;;;;4948535;28;20466;-77
2023/05/01 03:29:12;;;;;;;3.40;3.10;;;19.90;44.90;;;;;;4955591;28;20457;-77
2023/05/01 03:31:40;;;;;;;3.77;2.40;;;19.90;45.00;;;;;;4941020;28;20542;-77
2023/05/01 03:34:09;;;;;;;2.60;2.40;;;19.90;44.90;;;;;;4941041;29;20475;-78
2023/05/01 03:36:37;;;;;;;2.80;2.53;;;19.90;44.80;;;;;;4945501;29;20452;-78
2023/05/01 03:39:07;;;;;;;3.43;2.90;;;19.90;44.80;;;;;;4941869;28;20457;-77
2023/05/01 03:41:35;;;;;;;3.60;2.90;;;19.80;44.90;;;;;;4945551;28;20489;-77
2023/05/01 03:44:03;;;;;;;2.60;2.40;;;19.90;44.90;;;;;;4936484;29;20444;-77
2023/05/01 03:46:32;;;;;;;6.00;2.73;;;19.80;44.90;;;;;;4936294;29;20446;-77
2023/05/01 03:49:00;;;;;;;3.00;2.70;;;19.80;45.00;;;;;;4936566;29;20547;-77
2023/05/01 03:51:29;;;;;;;3.37;3.07;;;19.80;45.00;;;;;;4949834;29;20517;-77
2023/05/01 03:53:58;;;;;;;2.80;2.60;;;19.80;45.00;;;;;;4958300;29;20475;-77
2023/05/01 03:56:26;;;;;;;3.57;2.93;;;19.80;45.10;;;;;;4955678;29;20446;-76
2023/05/01 03:58:54;;;;;;;3.23;2.83;;;19.70;45.00;;;;;;4936468;29;20456;-77
2023/05/01 04:01:22;;;;;;;2.53;2.33;;;19.70;45.20;;;;;;4935800;29;20468;-76
2023/05/01 04:03:50;;;;;;;3.27;3.07;;;19.70;45.10;;;;;;4947214;29;20454;-77
2023/05/01 04:06:19;;;;;;;4.70;3.17;;;19.70;45.10;;;;;;4955000;29;20457;-76
2023/05/01 04:08:48;;;;;;;2.90;2.70;;;19.70;45.10;;;;;;4948692;29;20462;-76
2023/05/01 04:11:16;;;;;;;3.90;3.27;;;19.70;45.00;;;;;;4954679;29;20467;-75
2023/05/01 04:13:44;;;;;;;3.87;2.77;;;19.70;45.10;;;;;;4954234;29;20473;-77
2023/05/01 04:16:13;;;;;;;2.97;2.67;;;19.70;45.30;;;;;;4941170;29;20452;-77
2023/05/01 04:18:41;;;;;;;3.07;2.77;;;19.60;45.10;;;;;;4936521;29;20448;-77
2023/05/01 04:21:09;;;;;;;3.67;3.23;;;19.60;45.20;;;;;;4953132;28;20470;-77
2023/05/01 04:23:37;;;;;;;4.40;3.30;;;19.60;45.30;;;;;;4952016;28;20455;-77
2023/05/01 04:26:07;;;;;;;2.80;2.70;;;19.60;45.20;;;;;;4935151;28;20477;-77
2023/05/01 04:28:35;;;;;;;3.53;3.23;;;19.60;45.20;;;;;;4934039;29;20436;-76
2023/05/01 04:31:02;;;;;;;3.00;2.80;;;19.60;45.20;;;;;;4935923;29;20483;-77
2023/05/01 04:33:31;;;;;;;3.20;2.90;;;19.50;45.20;;;;;;4934482;29;20553;-77
2023/05/01 04:35:59;;;;;;;3.03;2.70;;;19.60;45.30;;;;;;4939274;29;20451;-77
2023/05/01 04:38:27;;;;;;;3.70;3.33;;;19.50;45.40;;;;;;4938574;29;20456;-77
2023/05/01 04:40:55;;;;;;;4.63;3.20;;;19.50;45.30;;;;;;4946280;28;20475;-77
2023/05/01 04:43:25;;;;;;;3.40;3.10;;;19.50;45.10;;;;;;4949730;29;20459;-77
2023/05/01 04:45:53;;;;;;;3.03;2.80;;;19.50;45.30;;;;;;4942618;29;20448;-77
2023/05/01 04:48:21;;;;;;;5.07;3.07;;;19.50;45.30;;;;;;4941488;29;20439;-76
2023/05/01 04:50:49;;;;;;;3.27;3.03;;;19.50;45.20;;;;;;4934949;29;20444;-77
2023/05/01 04:53:17;;;;;;;3.40;3.10;;;19.60;45.20;;;;;;4941171;29;20443;-77
2023/05/01 04:55:45;;;;;;;3.30;3.00;;;19.60;45.20;;;;;;4953689;29;20483;-77
2023/05/01 04:58:14;;;;;;;3.33;2.90;;;19.60;45.20;;;;;;4948966;28;20465;-78
2023/05/01 05:00:43;;;;;;;4.57;3.20;;;19.60;45.20;;;;;;4938129;29;20620;-78
2023/05/01 05:03:11;;;;;;;3.13;2.93;;;19.50;45.20;;;;;;4943661;29;20479;-77
2023/05/01 05:05:39;;;;;;;3.97;3.50;;;19.50;45.20;;;;;;4934945;29;20582;-77
2023/05/01 05:08:08;;;;;;;3.87;2.90;;;19.60;45.20;;;;;;4940314;29;20443;-78
2023/05/01 05:10:36;;;;;;;3.50;3.10;;;19.60;45.20;;;;;;4937708;29;20479;-78
2023/05/01 05:13:04;;;;;;;3.43;3.13;;;19.50;45.20;;;;;;4954036;29;20447;-77
2023/05/01 05:15:32;;;;;;;3.70;3.40;;;19.60;45.00;;;;;;4942885;29;20488;-77
2023/05/01 05:18:02;;;;;;;3.20;2.90;;;19.60;45.20;;;;;;4934762;29;20460;-77
2023/05/01 05:20:30;;;;;;;4.60;2.90;;;19.60;45.20;;;;;;4936869;29;20448;-77
2023/05/01 05:22:59;;;;;;;3.97;3.30;;;19.60;45.20;;;;;;4942587;29;20448;-75
2023/05/01 05:25:27;;;;;;;3.93;3.07;;;19.60;45.20;;;;;;4934880;29;20471;-78
2023/05/01 05:27:55;;;;;;;3.30;3.00;;;19.60;45.20;;;;;;4934651;29;20448;-78
2023/05/01 05:30:23;;;;;;;5.10;2.80;;;19.60;45.20;;;;;;4941809;29;20454;-77
2023/05/01 05:32:51;;;;;;;3.60;3.07;;;19.60;44.90;;;;;;4951536;29;20467;-79
2023/05/01 05:35:20;;;;;;;6.40;3.30;;;19.60;45.20;;;;;;4953283;29;20546;-78
2023/05/01 05:37:49;;;;;;;3.50;3.20;;;19.60;44.90;;;;;;4946977;28;20494;-77
2023/05/01 05:40:18;;;;;;;3.30;3.00;;;19.60;45.00;;;;;;4934241;29;20443;-75
2023/05/01 05:42:46;;;;;;;5.83;3.17;;;19.70;45.00;;;;;;4935490;29;20484;-77
2023/05/01 05:45:14;;;;;;;3.63;3.30;;;19.70;45.00;;;;;;4953411;29;20454;-77
2023/05/01 05:47:41;;;;;;;3.70;3.30;;;19.70;44.90;;;;;;4944693;29;20482;-78
2023/05/01 05:50:10;;;;;;;3.10;2.90;;;19.70;44.90;;;;;;4940294;29;20550;-77
2023/05/01 05:52:39;;;;;;;2.70;2.60;;;19.70;45.00;;;;;;4951441;29;20482;-78
2023/05/01 05:55:08;;;;;;;4.47;3.30;;;19.70;45.00;;;;;;4943720;29;20471;-77
2023/05/01 05:57:36;;;;;;;2.77;2.67;;;19.70;44.90;;;;;;4952676;29;20454;-79
2023/05/01 06:00:05;;;;;;;10.33;3.40;;;19.70;45.10;;;;;;4953377;29;20474;-76
2023/05/01 06:02:33;;;;;;;4.20;2.87;;;19.70;44.80;;;;;;4943604;29;20489;-77
2023/05/01 06:05:02;;;;;;;3.63;3.07;;;19.80;45.00;;;;;;4937446;29;20464;-77
2023/05/01 06:07:29;;;;;;;3.53;3.20;;;19.80;44.90;;;;;;4937474;28;20551;-77
2023/05/01 06:10:03;;;;;;;2.83;2.63;;;19.80;45.00;;;;;;4940960;29;20471;-77
2023/05/01 06:12:31;;;;;;;3.50;3.20;;;19.90;44.90;;;;;;4933699;29;20491;-77
2023/05/01 06:15:04;;;;;;;4.37;3.00;;;19.90;44.90;;;;;;4945930;29;20517;-78
2023/05/01 06:17:33;;;;;;;3.80;3.20;;;19.90;44.90;;;;;;4952778;29;20458;-77
2023/05/01 06:20:04;;;;;;;3.13;2.90;;;19.90;44.80;;;;;;4949727;29;20452;-75
2023/05/01 06:22:32;;;;;;;4.40;3.20;;;20.00;45.00;;;;;;4948166;29;20506;-77
2023/05/01 06:25:01;;;;;;;3.63;3.30;;;20.00;44.80;;;;;;4948880;29;20467;-77
2023/05/01 06:27:30;;;;;;;3.77;3.10;;;20.00;44.90;;;;;;4939999;29;20458;-77
2023/05/01 06:29:58;;;;;;;4.43;3.70;;;20.10;44.70;;;;;;4933732;29;20440;-77
2023/05/01 06:32:26;;;;;;;3.43;3.00;;;20.10;45.00;;;;;;4934896;29;20470;-77
2023/05/01 06:34:53;;;;;;;3.40;3.10;;;20.10;44.90;;;;;;4933507;29;20555;-78
2023/05/01 06:37:22;;;;;;;3.10;2.87;;;20.20;45.00;;;;;;4933826;29;20444;-78
2023/05/01 06:39:50;;;;;;;4.47;3.50;;;20.30;44.80;;;;;;4941236;29;20479;-78
2023/05/01 06:42:20;;;;;;;3.77;3.33;;;20.20;44.70;;;;;;4938414;29;20471;-77
2023/05/01 06:44:48;;;;;;;3.70;3.40;;;20.30;44.80;;;;;;4933443;29;20459;-78
2023/05/01 06:47:16;;;;;;;3.40;3.20;;;20.30;44.80;;;;;;4940130;29;20452;-78
2023/05/01 06:49:44;;;;;;;3.73;3.20;;;20.40;44.90;;;;;;4943450;29;20461;-78
2023/05/01 06:52:12;;;;;;;2.90;2.70;;;20.50;44.60;;;;;;4952599;28;20478;-78
2023/05/01 06:54:40;;;;;;;3.10;2.90;;;20.50;44.60;;;;;;4947190;29;20446;-79
2023/05/01 06:57:08;;;;;;;4.10;3.07;;;20.50;44.70;;;;;;4945775;29;20448;-77
2023/05/01 06:59:37;;;;;;;4.03;2.83;;;20.50;44.90;;;;;;4934803;29;20452;-78
2023/05/01 07:02:05;;;;;;;3.73;3.30;;;20.60;44.80;;;;;;4945502;29;20470;-77
2023/05/01 07:04:34;;;;;;;3.43;3.23;;;20.60;44.80;;;;;;4943737;29;20448;-78
2023/05/01 07:07:02;;;;;;;3.20;2.93;;;20.70;44.80;;;;;;4933450;29;20452;-78
2023/05/01 07:09:30;;;;;;;3.50;3.17;;;20.70;44.80;;;;;;4939857;29;20448;-78
2023/05/01 07:11:58;;;;;;;3.60;3.00;;;20.80;44.80;;;;;;4933386;29;20471;-80
2023/05/01 07:14:26;;;;;;;3.33;3.03;;;20.90;44.70;;;;;;4953474;28;20449;-77
2023/05/01 07:16:56;;;;;;;3.67;3.37;;;21.00;44.70;;;;;;4937306;29;20486;-78
2023/05/01 07:19:24;;;;;;;3.40;3.07;;;21.10;44.70;;;;;;4937365;29;20499;-77
2023/05/01 07:21:52;;;;;;;3.33;3.00;;;21.20;44.60;;;;;;4936535;29;20468;-78
2023/05/01 07:24:21;;;;;;;3.37;3.10;;;21.30;44.40;;;;;;4936568;29;20456;-77
2023/05/01 07:26:49;;;;;;;3.23;3.00;;;21.40;44.60;;;;;;4936644;29;20490;-76
2023/05/01 07:29:17;;;;;;;4.83;3.30;;;21.50;44.30;;;;;;4941105;29;20534;-78
2023/05/01 07:31:46;;;;;;;3.33;3.13;;;21.70;44.30;;;;;;4945226;28;20482;-78
2023/05/01 07:34:18;;;;;;;3.40;3.10;;;21.80;44.10;;;;;;4941668;29;20964;-78
2023/05/01 07:36:46;;;;;;;3.70;3.03;;;22.00;44.20;;;;;;4946195;29;20478;-78
2023/05/01 07:39:16;;;;;;;3.60;3.30;;;22.10;43.90;;;;;;4947866;29;20451;-78
2023/05/01 07:41:44;;;;;;;3.73;3.43;;;22.30;43.70;;;;;;4949833;28;20475;-79
2023/05/01 07:44:14;;;;;;;3.33;3.03;;;22.40;43.60;;;;;;4948566;29;20458;-78
2023/05/01 07:46:42;;;;;;;3.97;3.33;;;22.50;43.30;;;;;;4938481;29;20448;-78
2023/05/01 07:49:09;;;;;;;4.20;3.60;;;22.50;43.20;;;;;;4946684;29;20463;-78
2023/05/01 07:51:39;;;;;;;4.27;3.90;;;22.60;43.20;;;;;;4944576;29;20476;-78
2023/05/01 07:54:07;;;;;;;4.13;3.80;;;22.70;43.10;;;;;;4948527;29;20451;-77
2023/05/01 07:56:35;;;;;;;6.10;4.50;;;22.90;42.90;;;;;;4954355;29;20466;-77
2023/05/01 07:59:03;;;;;;;5.27;4.20;;;23.00;42.70;;;;;;4942842;29;20454;-78
2023/05/01 08:01:32;;;;;;;6.23;4.67;;;23.20;42.80;;;;;;4950282;29;20481;-78
2023/05/01 08:04:01;;;;;;;6.70;5.07;;;23.30;42.40;;;;;;4952529;29;20433;-78
2023/05/01 08:06:30;;;;;;;6.93;5.30;;;23.40;42.20;;;;;;4948120;29;20455;-78
2023/05/01 08:09:00;;;;;;;5.80;5.10;;;23.50;42.30;;;;;;4953997;29;20463;-78
2023/05/01 08:11:28;;;;;;;7.27;5.17;;;23.60;42.30;;;;;;4954148;29;20507;-79
2023/05/01 08:13:56;;;;;;;6.07;5.47;;;23.80;42.80;;;;;;4954157;29;20454;-77
2023/05/01 08:16:24;;;;;;;5.20;4.80;;;23.90;42.10;;;;;;4949885;29;20864;-75
2023/05/01 08:18:52;;;;;;;6.20;5.60;;;24.10;42.00;;;;;;4952446;29;20451;-77
2023/05/01 08:21:20;;;;;;;6.60;5.93;;;24.20;42.60;;;;;;4945701;29;20645;-76
2023/05/01 08:23:49;;;;;;;8.30;6.20;;;24.40;41.90;;;;;;4953280;29;20455;-76
2023/05/01 08:26:20;;;;;;;6.57;5.90;;;24.50;41.70;;;;;;4953247;28;20453;-77
2023/05/01 08:28:49;;;;;;;7.93;6.70;;;24.60;41.70;;;;;;4953517;29;20466;-77
2023/05/01 08:31:19;;;;;;;6.57;5.50;;;24.70;42.00;;;;;;4949449;29;20503;-77
2023/05/01 08:33:47;;;;;;;6.73;6.00;;;24.80;41.30;;;;;;4948824;29;20462;-77
2023/05/01 08:36:18;;;;;;;6.10;5.53;;;25.00;41.20;;;;;;4953840;29;20452;-77
2023/05/01 08:38:48;;;;;;;7.47;5.30;;;25.10;41.10;;;;;;4952982;29;20443;-77
2023/05/01 08:41:16;;;;;;;5.60;5.10;;;25.20;40.90;;;;;;4952677;29;20481;-77
2023/05/01 08:43:46;;;;;;;6.80;6.00;;;25.30;40.80;;;;;;4954025;29;20447;-77
2023/05/01 08:46:15;;;;;;;7.77;5.87;;;25.50;40.80;;;;;;4949558;29;20466;-75
2023/05/01 08:48:43;;;;;;;5.80;5.30;;;25.60;40.60;;;;;;4951170;29;20443;-77
2023/05/01 08:51:11;;;;;;;5.60;5.10;;;25.80;40.60;;;;;;4953849;29;20467;-77
2023/05/01 08:53:40;;;;;;;5.83;5.27;;;25.90;40.40;;;;;;4941825;28;20472;-74
2023/05/01 08:56:08;;;;;;;7.73;6.00;;;26.10;40.30;;;;;;4949207;29;20452;-77
2023/05/01 08:58:36;;;;;;;6.17;5.57;;;26.20;40.20;;;;;;4945744;29;20467;-75
2023/05/01 09:01:06;;;;;;;7.40;5.67;;;26.40;40.10;;;;;;4937455;29;20981;-75
2023/05/01 09:03:34;;;;;;;5.97;4.97;;;26.60;40.00;;;;;;4946938;29;20451;-76
2023/05/01 09:06:02;;;;;;;6.00;5.30;;;26.70;39.90;;;;;;4953298;29;20451;-77
2023/05/01 09:08:30;;;;;;;5.30;4.90;;;26.90;39.80;;;;;;4952905;28;20449;-77
2023/05/01 09:10:59;;;;;;;6.30;5.10;;;27.00;39.60;;;;;;4944757;29;20497;-75
2023/05/01 09:13:28;;;;;;;5.60;5.10;;;27.20;39.50;;;;;;4944458;29;20426;-74
2023/05/01 09:15:56;;;;;;;6.23;5.03;;;27.40;39.30;;;;;;4948538;28;20459;-76
2023/05/01 09:18:25;;;;;;;5.93;5.33;;;27.50;39.30;;;;;;4946645;28;20427;-77
2023/05/01 09:20:53;;;;;;;5.07;4.57;;;27.70;39.20;;;;;;4941808;29;20422;-79
2023/05/01 09:23:22;;;;;;;4.60;4.30;;;27.80;39.00;;;;;;4952549;28;20451;-78
2023/05/01 09:25:50;;;;;;;5.30;4.80;;;28.00;39.00;;;;;;4936376;29;20494;-77
2023/05/01 09:28:18;;;;;;;5.20;4.70;;;28.10;38.70;;;;;;4937971;29;20422;-76
2023/05/01 09:30:47;;;;;;;5.57;4.03;;;28.20;38.50;;;;;;4934901;29;20431;-76
2023/05/01 09:33:15;;;;;;;7.13;3.70;;;28.20;37.00;;;;;;4947212;29;20437;-76
2023/05/01 09:35:52;;;;;;;6.30;3.70;;;27.60;33.90;;;;;;4938070;28;20506;-78
2023/05/01 09:38:21;;;;;;;4.80;3.53;;;26.10;29.40;;;;;;4946660;28;20475;-77
2023/05/01 09:40:49;;;;;;;5.27;3.77;;;25.50;30.00;;;;;;4935352;29;20425;-79
2023/05/01 09:43:27;;;;;;;6.20;3.10;;;25.10;32.60;;;;;;4941864;29;20495;-79
2023/05/01 09:46:04;;;;;;;5.50;3.33;;;25.80;33.90;;;;;;4934978;29;20462;-78
2023/05/01 09:48:32;;;;;;;5.37;3.17;;;26.10;34.00;;;;;;4941642;29;20424;-78
2023/05/01 09:51:21;;;;;;;5.57;3.27;;;26.30;33.40;;;;;;4950058;29;20456;-79
2023/05/01 09:53:50;;;;;;;4.67;3.37;;;25.80;29.60;;;;;;4935916;29;20506;-79
2023/05/01 09:56:20;;;;;;;9.90;3.60;;;25.50;30.90;;;;;;4955519;29;20432;-75
2023/05/01 09:58:49;;;;;;;7.37;3.27;;;24.80;30.70;;;;;;4948189;29;20521;-80
2023/05/01 10:01:18;;;;;;;7.70;3.40;;;25.00;30.00;;;;;;4937944;29;20493;-81
2023/05/01 10:03:46;;;;;;;11.47;3.90;;;24.80;31.40;;;;;;4943279;29;20443;-78
2023/05/01 10:06:28;;;;;;;4.13;3.47;;;24.80;30.00;;;;;;4953927;29;20426;-79
2023/05/01 10:08:56;;;;;;;10.27;5.50;;;25.00;30.60;;;;;;4958177;29;20462;-79
2023/05/01 10:11:25;;;;;;;11.10;6.17;;;25.30;31.20;;;;;;4949977;29;20508;-79
2023/05/01 10:14:08;;;;;;;3.93;3.63;;;25.00;32.00;;;;;;4940801;29;20464;-80
2023/05/01 10:16:37;;;;;;;11.73;4.00;;;25.50;30.20;;;;;;4955092;29;20522;-79
2023/05/01 10:19:06;;;;;;;4.57;3.40;;;25.50;31.80;;;;;;4959198;29;20455;-78
2023/05/01 10:21:35;;;;;;;7.57;3.40;;;25.50;31.30;;;;;;4949705;29;20509;-80
2023/05/01 10:24:05;;;;;;;9.53;4.53;;;25.20;30.00;;;;;;4939329;28;20452;-79
2023/05/01 10:26:33;;;;;;;4.57;3.03;;;25.50;31.60;;;;;;4945081;29;20463;-79
2023/05/01 10:29:01;;;;;;;6.00;3.10;;;24.80;29.90;;;;;;4935627;29;20490;-77
2023/05/01 10:31:31;;;;;;;10.93;3.47;;;24.80;30.30;;;;;;4935060;29;20450;-74
2023/05/01 10:34:00;;;;;;;6.93;3.27;;;25.40;32.40;;;;;;4935390;29;20430;-75
2023/05/01 10:36:32;;;;;;;5.80;3.23;;;26.10;32.10;;;;;;4939076;29;20427;-76
2023/05/01 10:39:02;;;;;;;5.17;3.00;;;26.70;31.80;;;;;;4934252;29;20522;-77
2023/05/01 10:42:02;;;;;;;5.23;3.03;;;27.10;31.90;;;;;;4940719;29;20486;-77
2023/05/01 10:44:31;;;;;;;4.73;3.50;;;27.50;31.80;;;;;;4946444;29;20455;-77
2023/05/01 10:46:59;;;;;;;6.63;3.00;;;27.70;32.00;;;;;;4941752;29;20428;-77
2023/05/01 10:49:54;;;;;;;5.97;2.90;;;27.90;32.10;;;;;;4935393;29;20433;-76
2023/05/01 10:52:23;;;;;;;8.50;2.80;;;28.10;32.10;;;;;;4943376;29;20507;-76
2023/05/01 10:54:53;;;;;;;4.20;2.77;;;28.20;32.10;;;;;;4950506;29;20406;-76
2023/05/01 10:57:42;;;;;;;4.63;2.90;;;28.40;32.20;;;;;;4952396;29;20599;-77
2023/05/01 11:00:11;;;;;;;3.67;2.57;;;28.50;32.30;;;;;;4949000;29;20436;-78
2023/05/01 11:02:41;;;;;;;6.07;2.97;;;28.70;32.40;;;;;;4957009;29;20471;-76
2023/05/01 11:05:09;;;;;;;3.70;3.00;;;28.80;32.20;;;;;;4939940;29;20488;-76
2023/05/01 11:07:38;;;;;;;2.80;2.60;;;28.80;32.20;;;;;;4943492;29;20531;-77
2023/05/01 11:10:21;;;;;;;10.57;3.20;;;29.00;32.40;;;;;;4944830;29;20468;-76
2023/05/01 11:12:56;;;;;;;2.50;2.40;;;29.30;32.40;;;;;;4944284;29;20448;-76
2023/05/01 11:15:29;;;;;;;4.77;2.57;;;29.90;31.90;;;;;;4936907;29;20436;-77
2023/05/01 11:17:58;;;;;;;4.30;2.70;;;30.60;31.10;;;;;;4937508;29;20457;-77
2023/05/01 11:20:49;;;;;;;4.60;2.20;;;31.40;30.60;;;;;;4950405;29;20867;-78
2023/05/01 11:23:18;;;;;;;7.90;2.70;;;32.20;29.50;;;;;;4949110;29;20417;-76
2023/05/01 11:25:50;;;;;;;5.20;2.77;;;32.50;29.20;;;;;;4953850;29;20447;-78
2023/05/01 11:28:23;;;;;;;3.40;2.37;;;32.90;28.80;;;;;;4942340;29;20527;-74
2023/05/01 11:30:52;;;;;;;10.03;2.40;;;33.70;28.40;;;;;;4942986;29;20462;-77
2023/05/01 11:33:30;;;;;;;3.10;2.40;;;34.50;28.00;;;;;;4937181;29;20452;-80
2023/05/01 11:35:59;;;;;;;6.33;2.90;;;35.20;27.10;;;;;;4943682;29;20458;-77
2023/05/01 11:38:28;;;;;;;8.73;3.30;;;35.70;26.90;;;;;;4950968;29;20479;-77
2023/05/01 11:41:06;;;;;;;9.03;3.70;;;36.10;26.60;;;;;;4947912;28;20461;-78
2023/05/01 11:43:48;;;;;;;7.73;3.90;;;35.40;26.20;;;;;;4937628;29;20443;-79
2023/05/01 11:46:26;;;;;;;9.57;4.20;;;34.60;27.80;;;;;;4938667;29;20444;-78
2023/05/01 11:48:55;;;;;;;8.00;3.43;;;35.20;27.30;;;;;;4945671;29;20450;-79
2023/05/01 11:51:23;;;;;;;6.13;3.30;;;36.20;26.70;;;;;;4941532;29;20466;-78
2023/05/01 11:54:00;;;;;;;20.70;4.17;;;36.10;25.80;;;;;;4953914;29;20209;-80
2023/05/01 11:56:31;;;;;;;7.67;3.63;;;37.00;25.90;;;;;;4950715;29;20451;-80
2023/05/01 11:59:00;;;;;;;7.53;3.20;;;37.50;25.40;;;;;;4956199;29;20475;-79
2023/05/01 12:01:35;;;;;;;14.83;3.60;;;38.10;25.00;;;;;;4953793;28;20472;-80
2023/05/01 12:04:03;;;;;;;12.87;3.27;;;36.80;25.20;;;;;;4946173;29;20455;-80
2023/05/01 12:06:42;;;;;;;8.57;3.37;;;36.10;25.80;;;;;;4944921;29;20452;-77
2023/05/01 12:09:10;;;;;;;14.83;3.40;;;35.90;26.70;;;;;;4956561;29;20538;-80
2023/05/01 12:11:40;;;;;;;8.17;3.07;;;37.20;26.10;;;;;;4953285;29;20562;-79
2023/05/01 12:14:10;;;;;;;8.23;3.60;;;37.40;24.90;;;;;;4957590;29;20457;-78
2023/05/01 12:16:39;;;;;;;11.23;3.40;;;36.30;25.70;;;;;;4953464;29;20447;-81
2023/05/01 12:19:07;;;;;;;7.33;3.10;;;36.60;26.20;;;;;;4960167;29;20572;-78
2023/05/01 12:21:36;;;;;;;7.00;3.40;;;36.20;27.10;;;;;;4951217;29;20471;-78
2023/05/01 12:24:08;;;;;;;5.73;3.30;;;36.20;26.00;;;;;;4956055;29;20466;-80
2023/05/01 12:26:36;;;;;;;10.60;3.73;;;35.10;26.90;;;;;;4954963;28;20451;-79
2023/05/01 12:29:06;;;;;;;8.03;3.57;;;34.60;27.80;;;;;;4953341;28;20508;-80
2023/05/01 12:31:34;;;;;;;5.70;3.20;;;36.00;27.40;;;;;;4951111;29;20471;-80
2023/05/01 12:34:04;;;;;;;7.53;4.03;;;35.50;27.00;;;;;;4955550;28;20491;-79
2023/05/01 12:36:34;;;;;;;5.60;3.87;;;34.60;27.60;;;;;;4955066;29;20447;-79
2023/05/01 12:39:03;;;;;;;9.20;3.80;;;33.80;28.40;;;;;;4950523;29;20481;-81
2023/05/01 12:41:41;;;;;;;6.63;3.40;;;33.00;29.20;;;;;;4954295;29;20844;-80
2023/05/01 12:44:19;;;;;;;12.17;3.20;;;32.20;30.00;;;;;;4956545;28;20947;-77
2023/05/01 12:46:53;;;;;;;8.77;4.27;;;31.70;30.80;;;;;;4954790;29;20454;-79
2023/05/01 12:49:21;;;;;;;8.83;3.70;;;31.50;31.60;;;;;;4960203;29;20446;-80
2023/05/01 12:51:50;;;;;;;11.10;3.33;;;31.30;31.80;;;;;;4948509;29;20474;-80
2023/05/01 12:54:20;;;;;;;8.97;3.60;;;31.10;32.20;;;;;;4958087;29;20422;-80
2023/05/01 12:56:48;;;;;;;8.17;3.80;;;30.80;32.50;;;;;;4956463;29;20538;-81
2023/05/01 12:59:24;;;;;;;10.37;3.50;;;30.70;33.10;;;;;;4946094;29;21009;-79